Time;durP1;ratioP1;P1;durP2;ratioP2;P2;SDS_P1;SDS_P2;PMS_P1;PMS_P2;Temp;Humidity;BMP_temperature;BMP_pressure;BME280_temperature;BME280_humidity;BME280_pressure;Samples;Min_cycle;Max_cycle;Signal;HPM_P1;HPM_P2
2021/11/02 00:01:29;;;;;;;1.05;0.75;;;;;;;14.06;60.26;94088.50;4981922;28;20049;-64
2021/11/02 00:03:55;;;;;;;1.05;0.40;;;;;;;14.12;60.32;94081.72;4989929;28;20037;-64
2021/11/02 00:06:20;;;;;;;1.70;0.40;;;;;;;14.17;60.05;94091.38;4990380;28;20034;-65
2021/11/02 00:08:46;;;;;;;1.45;0.60;;;;;;;14.28;60.17;94100.41;4990279;28;20034;-63
2021/11/02 00:11:12;;;;;;;0.93;0.43;;;;;;;14.21;60.04;94092.22;4991475;28;20033;-64
2021/11/02 00:13:45;;;;;;;0.55;0.43;;;;;;;14.29;59.94;94100.03;4984269;28;20029;-64
2021/11/02 00:16:14;;;;;;;0.68;0.50;;;;;;;14.28;59.95;94103.09;4985892;28;20496;-64
2021/11/02 00:18:45;;;;;;;0.82;0.60;;;;;;;14.32;60.24;94103.91;4990357;28;20073;-65
2021/11/02 00:21:11;;;;;;;3.15;0.70;;;;;;;14.31;60.03;94099.69;4989856;28;20033;-64
2021/11/02 00:23:37;;;;;;;0.88;0.57;;;;;;;14.31;59.82;94097.00;4988183;28;20031;-65
2021/11/02 00:26:08;;;;;;;0.88;0.52;;;;;;;14.27;59.81;94088.13;4991292;28;20026;-64
2021/11/02 00:28:34;;;;;;;1.27;1.05;;;;;;;14.30;59.45;94106.16;4978438;28;20015;-65
2021/11/02 00:31:00;;;;;;;0.88;0.60;;;;;;;14.27;59.91;94102.28;4978127;28;20018;-65
2021/11/02 00:33:26;;;;;;;0.60;0.60;;;;;;;14.25;59.67;94099.19;4988743;28;20080;-65
2021/11/02 00:35:52;;;;;;;0.70;0.70;;;;;;;14.26;59.67;94089.28;4990087;28;20054;-64
2021/11/02 00:38:17;;;;;;;0.68;0.68;;;;;;;14.28;59.66;94092.38;4989799;28;20027;-64
2021/11/02 00:40:44;;;;;;;0.80;0.63;;;;;;;14.23;59.49;94096.13;4989584;28;20023;-65
2021/11/02 00:43:10;;;;;;;1.38;0.65;;;;;;;14.22;59.80;94093.78;4983650;28;20062;-64
2021/11/02 00:45:36;;;;;;;0.93;0.80;;;;;;;14.18;59.44;94095.63;4978109;28;20113;-65
2021/11/02 00:48:13;;;;;;;2.03;0.82;;;;;;;14.19;59.67;94095.25;4986045;28;20141;-64
2021/11/02 00:50:43;;;;;;;1.00;0.68;;;;;;;14.17;59.43;94091.38;4989394;28;20058;-64
2021/11/02 00:53:09;;;;;;;1.77;0.70;;;;;;;14.01;59.26;94089.53;4989400;28;20026;-64
2021/11/02 00:55:35;;;;;;;0.82;0.63;;;;;;;14.00;59.51;94088.00;4989947;28;20045;-66
2021/11/02 00:58:02;;;;;;;0.88;0.88;;;;;;;13.98;59.78;94076.13;4988173;28;20029;-64
2021/11/02 01:00:28;;;;;;;0.70;0.60;;;;;;;14.08;59.77;94088.16;4986298;28;20027;-64
2021/11/02 01:02:53;;;;;;;0.82;0.60;;;;;;;14.04;59.68;94080.81;4987956;28;20030;-64
2021/11/02 01:05:19;;;;;;;0.80;0.80;;;;;;;13.97;60.18;94066.53;4993196;28;20057;-64
2021/11/02 01:07:44;;;;;;;2.15;0.80;;;;;;;14.03;59.80;94065.91;4993013;28;20090;-64
2021/11/02 01:10:17;;;;;;;2.03;0.90;;;;;;;14.03;59.77;94076.59;4992761;28;20073;-64
2021/11/02 01:12:47;;;;;;;1.30;1.08;;;;;;;13.91;59.95;94073.28;4994782;28;20475;-64
2021/11/02 01:15:16;;;;;;;3.10;0.80;;;;;;;13.94;59.85;94072.59;4989875;28;20031;-64
2021/11/02 01:17:42;;;;;;;1.10;0.80;;;;;;;13.84;60.41;94051.75;4979775;28;20023;-64
2021/11/02 01:20:11;;;;;;;2.33;0.70;;;;;;;13.94;60.13;94072.59;4973357;28;20154;-64
2021/11/02 01:22:36;;;;;;;0.85;0.60;;;;;;;13.88;59.77;94056.06;4973354;28;20015;-64
2021/11/02 01:25:02;;;;;;;0.95;0.80;;;;;;;13.85;59.71;94059.41;4973318;28;20041;-64
2021/11/02 01:27:28;;;;;;;0.75;0.75;;;;;;;13.76;59.89;94054.25;5000716;28;20054;-64
2021/11/02 01:29:53;;;;;;;1.77;1.20;;;;;;;13.76;59.92;94061.50;4987033;28;20116;-65
2021/11/02 01:32:19;;;;;;;2.58;0.90;;;;;;;13.71;59.83;94065.22;4984100;28;20034;-64
2021/11/02 01:34:44;;;;;;;1.17;1.08;;;;;;;13.67;59.96;94066.31;4992499;28;20030;-65
2021/11/02 01:37:10;;;;;;;1.42;1.08;;;;;;;13.61;59.84;94049.75;4992709;28;20651;-64
2021/11/02 01:39:36;;;;;;;1.42;1.30;;;;;;;13.61;60.12;94056.97;4992836;28;20037;-64
2021/11/02 01:42:01;;;;;;;1.45;1.00;;;;;;;13.61;59.99;94059.66;4993473;28;20428;-64
2021/11/02 01:44:29;;;;;;;1.00;0.90;;;;;;;13.57;59.97;94053.47;4986135;28;20041;-64
2021/11/02 01:46:55;;;;;;;1.38;1.13;;;;;;;13.61;60.05;94054.31;4984376;28;20022;-64
2021/11/02 01:49:20;;;;;;;1.40;1.27;;;;;;;13.46;59.52;94051.34;4992713;28;20033;-64
2021/11/02 01:51:46;;;;;;;1.00;1.00;;;;;;;13.26;59.75;94042.50;4990563;28;20019;-65
2021/11/02 01:54:12;;;;;;;1.73;1.13;;;;;;;13.23;60.00;94048.53;4990738;28;20030;-64
2021/11/02 01:56:37;;;;;;;1.98;1.20;;;;;;;12.79;59.25;94034.47;4994594;28;20604;-64
2021/11/02 01:59:03;;;;;;;1.90;1.30;;;;;;;12.90;59.84;94051.56;4999876;28;20033;-64
2021/11/02 02:01:56;;;;;;;1.27;0.98;;;;;;;12.43;60.55;94052.25;4983366;28;20775;-64
2021/11/02 02:04:48;;;;;;;1.17;1.08;;;;;;;12.38;60.69;94054.41;4992276;28;20109;-64
2021/11/02 02:07:13;;;;;;;2.97;1.50;;;;;;;12.83;60.30;94054.03;5006931;28;20118;-64
2021/11/02 02:10:03;;;;;;;1.30;1.20;;;;;;;12.68;60.47;94044.13;4992234;28;20117;-63
2021/11/02 02:12:37;;;;;;;1.20;1.10;;;;;;;12.63;61.02;94042.47;4960823;28;20034;-64
2021/11/02 02:15:33;;;;;;;1.85;1.70;;;;;;;12.69;60.72;94035.78;4985958;28;20022;-64
2021/11/02 02:18:17;;;;;;;1.88;1.50;;;;;;;12.73;60.67;94030.53;4976420;28;20030;-64
2021/11/02 02:21:31;;;;;;;1.75;1.65;;;;;;;12.70;60.73;94031.22;4971987;28;20380;-64
2021/11/02 02:24:24;;;;;;;2.35;2.10;;;;;;;12.62;60.40;94032.94;4896178;29;20062;-64
2021/11/02 02:27:17;;;;;;;1.67;1.55;;;;;;;12.53;60.79;94034.22;4917676;29;20135;-64
2021/11/02 02:29:44;;;;;;;3.10;1.60;;;;;;;12.42;60.46;94021.38;4972670;28;20038;-64
2021/11/02 02:32:16;;;;;;;1.75;1.30;;;;;;;12.49;60.61;94031.47;4974182;28;20057;-64
2021/11/02 02:34:48;;;;;;;2.45;1.55;;;;;;;12.47;60.77;94025.69;4971551;28;20031;-65
2021/11/02 02:37:14;;;;;;;3.28;2.03;;;;;;;12.48;60.54;94028.00;4972054;28;20066;-66
2021/11/02 02:39:40;;;;;;;2.65;2.15;;;;;;;12.42;60.76;94018.72;4972015;28;20381;-64
2021/11/02 02:42:08;;;;;;;4.90;2.33;;;;;;;12.41;60.57;94017.16;4975227;28;20042;-64
2021/11/02 02:44:34;;;;;;;4.13;2.28;;;;;;;12.47;60.62;94026.47;4985160;28;20655;-64
2021/11/02 02:47:02;;;;;;;2.85;2.03;;;;;;;12.51;60.23;94039.13;4983243;28;20069;-64
2021/11/02 02:49:28;;;;;;;2.55;1.90;;;;;;;12.45;60.40;94026.03;4991097;28;20711;-65
2021/11/02 02:51:56;;;;;;;1.98;1.77;;;;;;;12.33;60.68;94025.31;4990760;28;20030;-65
2021/11/02 02:54:23;;;;;;;4.15;2.00;;;;;;;12.22;60.35;94015.16;5005874;28;20034;-65
2021/11/02 02:56:50;;;;;;;1.67;1.58;;;;;;;12.13;60.28;94016.41;4991326;28;20026;-65
2021/11/02 02:59:16;;;;;;;3.35;2.10;;;;;;;12.06;60.47;94022.34;4983098;28;20022;-65
2021/11/02 03:01:42;;;;;;;2.20;1.90;;;;;;;11.96;61.09;94012.16;4979113;28;20381;-64
2021/11/02 03:04:22;;;;;;;4.00;2.13;;;;;;;11.98;60.55;94028.59;4971372;28;20019;-64
2021/11/02 03:06:53;;;;;;;3.88;2.08;;;;;;;11.82;60.91;94009.88;4971606;28;20528;-64
2021/11/02 03:09:19;;;;;;;4.15;1.80;;;;;;;11.89;60.84;94026.06;4985590;28;20074;-64
2021/11/02 03:11:45;;;;;;;2.33;1.88;;;;;;;11.78;61.09;94017.00;4972329;28;20031;-64
2021/11/02 03:14:14;;;;;;;5.95;1.98;;;;;;;11.74;60.63;94020.66;4982115;28;20057;-64
2021/11/02 03:17:17;;;;;;;6.00;1.88;;;;;;;11.78;60.81;94024.22;4982477;28;20030;-63
2021/11/02 03:50:24;;;;;;;1.65;1.25;;;;;;;11.71;61.43;94001.56;4990237;28;20172;-63
2021/11/02 03:55:52;;;;;;;4.28;1.08;;;;;;;11.62;60.06;94008.94;4990404;28;20674;-64
2021/11/02 03:58:23;;;;;;;;;;;;;;;11.76;60.69;94026.41;4988478;28;20030;-64
2021/11/02 06:00:13;;;;;;;2.42;1.20;;;;;;;12.55;58.86;94035.44;4975008;28;20049;-73
2021/11/02 06:09:20;;;;;;;0.70;0.60;;;;;;;12.66;58.52;94049.03;4972841;28;20045;-74
2021/11/02 06:28:32;;;;;;;1.02;0.82;;;;;;;12.68;57.89;94044.13;4983705;28;20048;-74
2021/11/02 07:20:07;;;;;;;2.15;0.57;;;;;;;13.90;56.05;94066.38;4955146;28;20035;-81
2021/11/02 07:23:19;;;;;;;1.70;0.65;;;;;;;13.99;56.29;94080.34;4953674;28;20023;-79
2021/11/02 07:25:37;;;;;;;3.78;0.77;;;;;;;14.10;56.12;94067.94;4952798;28;20398;-79
2021/11/02 08:46:11;;;;;;;2.00;0.52;;;;;;;11.74;58.61;94074.72;4969401;28;20145;-75
2021/11/02 08:48:37;;;;;;;2.35;0.52;;;;;;;12.19;57.68;94071.84;4975249;28;20030;-75
2021/11/02 08:51:02;;;;;;;0.55;0.40;;;;;;;11.89;57.52;94078.59;4974547;28;20031;-81
2021/11/02 08:53:28;;;;;;;1.45;0.50;;;;;;;11.73;58.04;94073.16;4974218;28;20030;-70
2021/11/02 08:55:55;;;;;;;1.13;0.40;;;;;;;12.08;57.33;94068.09;4972474;28;20033;-70
2021/11/02 08:58:29;;;;;;;2.53;0.50;;;;;;;12.40;56.47;94071.63;4973541;28;20113;-69
2021/11/02 09:00:56;;;;;;;0.65;0.38;;;;;;;12.03;56.78;94078.19;4976639;28;20029;-70
2021/11/02 09:03:28;;;;;;;1.50;0.32;;;;;;;12.44;55.08;94083.16;4982596;28;20035;-70
2021/11/02 09:05:55;;;;;;;3.43;0.97;;;;;;;12.12;56.08;94073.50;4993092;28;20027;-71
2021/11/02 09:08:21;;;;;;;2.50;0.57;;;;;;;11.21;58.82;94079.22;4993131;28;20283;-70
2021/11/02 09:10:49;;;;;;;0.82;0.38;;;;;;;11.66;57.93;94086.25;4991219;28;20526;-71
2021/11/02 09:13:15;;;;;;;1.80;0.40;;;;;;;12.09;55.99;94069.66;4992805;28;20448;-71
2021/11/02 09:15:43;;;;;;;1.85;0.50;;;;;;;12.96;54.27;94081.44;4980569;28;20487;-69
2021/11/02 09:18:11;;;;;;;3.15;0.65;;;;;;;11.73;55.89;94083.06;4978945;28;20062;-71
2021/11/02 09:20:38;;;;;;;3.50;0.50;;;;;;;12.26;55.28;94078.47;4992448;28;20093;-71
2021/11/02 09:23:05;;;;;;;2.38;0.50;;;;;;;12.21;55.34;94076.81;4992552;28;20018;-70
2021/11/02 09:25:33;;;;;;;1.45;0.50;;;;;;;13.22;54.20;94056.91;4992387;28;20101;-70
2021/11/02 09:28:00;;;;;;;3.28;0.50;;;;;;;13.11;54.07;94069.19;4992694;28;20112;-71
2021/11/02 09:30:26;;;;;;;3.78;0.28;;;;;;;12.16;53.60;94055.72;4976878;28;20072;-71
2021/11/02 09:32:55;;;;;;;1.63;0.50;;;;;;;11.39;55.92;94043.25;4980221;28;20027;-71
2021/11/02 09:35:22;;;;;;;1.42;0.30;;;;;;;12.29;54.83;94075.13;4991029;28;20686;-70
2021/11/02 09:38:27;;;;;;;2.90;0.50;;;;;;;12.49;54.25;94076.81;4991284;28;20065;-70
2021/11/02 09:41:10;;;;;;;3.05;0.63;;;;;;;13.00;52.80;94069.72;4988368;28;20062;-71
2021/11/02 09:43:46;;;;;;;3.78;0.85;;;;;;;13.44;50.88;94060.81;4990072;28;20026;-71
2021/11/02 09:46:30;;;;;;;3.05;1.05;;;;;;;12.36;52.55;94070.75;4968973;28;20426;-70
2021/11/02 09:49:14;;;;;;;2.03;0.50;;;;;;;12.49;53.65;94061.59;4984217;28;20395;-72
2021/11/02 09:51:54;;;;;;;2.67;0.82;;;;;;;13.07;51.85;94063.00;4991567;28;20031;-71
2021/11/02 09:54:22;;;;;;;3.60;0.50;;;;;;;11.93;52.87;94058.94;4991916;28;20108;-69
2021/11/02 09:57:14;;;;;;;2.30;0.73;;;;;;;12.08;51.76;94054.78;4992086;28;20031;-71
2021/11/02 10:00:24;;;;;;;1.50;0.50;;;;;;;12.26;51.22;94025.91;4984798;28;20042;-71
2021/11/02 10:03:15;;;;;;;2.17;1.00;;;;;;;12.88;50.30;94051.09;4975522;28;20038;-69
2021/11/02 10:06:05;;;;;;;3.80;0.70;;;;;;;13.98;48.65;94052.81;4953061;28;20464;-70
2021/11/02 10:08:53;;;;;;;0.85;0.30;;;;;;;14.28;47.35;94046.91;4953176;28;20043;-70
2021/11/02 10:11:44;;;;;;;3.70;0.60;;;;;;;13.83;47.28;94055.56;4967572;28;20027;-70
2021/11/02 10:14:40;;;;;;;2.33;0.60;;;;;;;13.45;48.35;94041.00;4955600;28;20038;-71
2021/11/02 10:17:35;;;;;;;0.68;0.35;;;;;;;14.53;46.80;94042.78;4978490;28;20130;-70
2021/11/02 10:20:08;;;;;;;4.03;0.70;;;;;;;13.43;48.24;94048.59;4988082;28;20034;-70
2021/11/02 10:23:06;;;;;;;2.42;1.10;;;;;;;14.37;46.01;94044.00;4991066;28;20014;-69
2021/11/02 10:26:02;;;;;;;3.40;0.70;;;;;;;14.00;46.08;94049.78;4979777;28;20062;-69
2021/11/02 10:28:40;;;;;;;2.85;0.50;;;;;;;14.93;45.21;94040.81;4990146;28;20023;-69
2021/11/02 10:31:20;;;;;;;2.30;0.60;;;;;;;15.53;44.52;94041.72;4976129;28;20381;-69
2021/11/02 10:34:00;;;;;;;2.28;0.77;;;;;;;14.87;46.12;94032.28;4997847;28;20491;-69
2021/11/02 10:36:47;;;;;;;2.30;0.65;;;;;;;14.08;46.47;94040.78;4991674;28;20046;-69
2021/11/02 10:39:25;;;;;;;2.17;0.50;;;;;;;14.22;45.26;94046.41;4991351;28;20033;-68
2021/11/02 10:42:13;;;;;;;3.70;0.60;;;;;;;14.26;44.88;94041.13;4991046;28;20038;-70
2021/11/02 10:44:52;;;;;;;4.10;0.65;;;;;;;14.11;45.95;94039.31;4984415;28;20100;-70
2021/11/02 10:47:18;;;;;;;1.88;0.50;;;;;;;15.68;44.16;94041.97;4980798;28;20085;-71
2021/11/02 10:50:10;;;;;;;2.45;0.90;;;;;;;15.58;43.07;94038.72;4984546;28;20030;-70
2021/11/02 10:52:38;;;;;;;2.90;0.50;;;;;;;14.91;42.72;94038.50;4991505;28;20031;-70
2021/11/02 10:55:22;;;;;;;2.20;0.60;;;;;;;14.54;44.10;94041.69;4991630;28;20039;-70
2021/11/02 10:58:09;;;;;;;4.18;0.63;;;;;;;14.67;43.43;94041.50;4991725;28;20058;-69
2021/11/02 11:00:35;;;;;;;1.50;0.75;;;;;;;14.57;43.66;94032.16;4983729;28;20424;-70
2021/11/02 11:03:07;;;;;;;4.57;0.60;;;;;;;14.22;43.01;94016.22;4978039;28;20023;-70
2021/11/02 11:05:33;;;;;;;1.40;0.40;;;;;;;15.62;41.64;94043.38;4952274;28;20026;-70
2021/11/02 11:08:01;;;;;;;1.20;0.50;;;;;;;14.84;42.66;94038.34;4952252;28;20019;-70
2021/11/02 11:10:28;;;;;;;4.45;0.85;;;;;;;14.51;43.62;94038.94;4951784;28;20031;-70
2021/11/02 11:12:56;;;;;;;3.50;0.82;;;;;;;14.97;42.83;94053.13;4951806;28;20042;-70
2021/11/02 11:15:32;;;;;;;3.67;0.80;;;;;;;14.52;42.43;94040.47;4967723;28;20035;-71
2021/11/02 11:18:02;;;;;;;1.58;0.57;;;;;;;14.55;42.62;94048.59;4979812;28;20053;-71
2021/11/02 11:20:29;;;;;;;2.47;0.60;;;;;;;15.28;41.97;94044.03;4982114;28;20030;-71
2021/11/02 11:22:57;;;;;;;2.63;0.50;;;;;;;16.37;39.57;94039.72;4990535;28;20027;-70
2021/11/02 11:25:45;;;;;;;1.83;0.95;;;;;;;17.02;38.34;94044.59;4989442;28;20093;-70
2021/11/02 11:28:14;;;;;;;2.25;0.63;;;;;;;14.98;41.86;94054.66;4991257;28;20426;-70
2021/11/02 11:30:41;;;;;;;1.65;0.70;;;;;;;14.93;42.12;94049.59;4968162;28;20062;-70
2021/11/02 11:33:12;;;;;;;2.40;0.68;;;;;;;14.86;41.22;94048.72;4978443;28;20480;-71
2021/11/02 11:35:39;;;;;;;1.20;0.40;;;;;;;14.77;41.01;94030.97;4982368;28;20034;-70
2021/11/02 11:38:06;;;;;;;1.65;0.40;;;;;;;14.33;42.57;94060.00;4990636;28;20023;-71
2021/11/02 11:40:34;;;;;;;3.08;0.60;;;;;;;13.65;46.46;94061.28;4989119;28;20492;-70
2021/11/02 11:43:02;;;;;;;2.67;0.80;;;;;;;12.63;51.30;94084.38;4990292;28;20034;-71
2021/11/02 11:45:30;;;;;;;2.70;0.82;;;;;;;12.14;54.68;94076.63;4983167;28;20543;-71
2021/11/02 11:48:08;;;;;;;2.97;0.50;;;;;;;11.93;56.84;94085.59;4981755;28;20487;-71
2021/11/02 11:50:41;;;;;;;1.77;0.65;;;;;;;12.70;54.57;94071.25;4974874;28;20029;-69
2021/11/02 11:53:07;;;;;;;2.05;0.40;;;;;;;12.78;54.04;94058.84;4990063;28;20030;-69
2021/11/02 11:55:42;;;;;;;4.65;1.02;;;;;;;12.66;54.50;94073.03;4990379;28;20045;-70
2021/11/02 11:58:10;;;;;;;2.53;0.70;;;;;;;13.69;53.17;94082.75;4990434;28;20380;-70
2021/11/02 12:00:39;;;;;;;2.05;0.80;;;;;;;13.50;53.12;94086.13;4979195;28;20102;-69
2021/11/02 12:03:33;;;;;;;2.88;0.80;;;;;;;13.36;51.74;94080.47;4982774;28;20030;-69
2021/11/02 12:06:36;;;;;;;1.70;1.15;;;;;;;14.59;49.59;94079.97;4986398;28;20037;-70
2021/11/02 12:09:29;;;;;;;5.40;1.23;;;;;;;14.53;49.57;94069.56;4990026;28;20038;-70
2021/11/02 12:12:04;;;;;;;1.85;0.82;;;;;;;14.43;49.26;94069.31;5003057;28;20038;-70
2021/11/02 12:14:33;;;;;;;2.25;0.60;;;;;;;15.07;47.39;94071.25;4986019;28;20066;-70
2021/11/02 12:17:02;;;;;;;2.85;0.73;;;;;;;16.37;45.74;94066.56;4973557;28;20104;-69
2021/11/02 12:19:30;;;;;;;2.58;0.68;;;;;;;15.29;45.76;94063.56;4981568;28;20018;-69
2021/11/02 12:22:14;;;;;;;4.18;1.00;;;;;;;15.62;46.12;94070.19;4988113;28;20029;-69
2021/11/02 12:24:41;;;;;;;2.63;0.60;;;;;;;15.94;44.68;94063.38;4989805;28;20380;-69
2021/11/02 12:27:13;;;;;;;1.63;0.50;;;;;;;16.86;44.48;94065.56;4989921;28;20022;-69
2021/11/02 12:29:40;;;;;;;1.92;0.50;;;;;;;16.81;42.49;94053.25;4985190;28;20034;-69
2021/11/02 12:32:07;;;;;;;0.43;0.30;;;;;;;16.31;42.42;94057.28;4990026;28;20027;-69
2021/11/02 12:34:52;;;;;;;1.65;0.90;;;;;;;15.25;44.18;94060.06;4981240;28;20014;-69
2021/11/02 12:37:20;;;;;;;0.95;0.47;;;;;;;15.89;42.83;94058.31;4989941;28;20445;-69
2021/11/02 12:39:47;;;;;;;1.23;0.60;;;;;;;15.81;44.21;94070.06;4989755;28;20487;-70
2021/11/02 12:42:20;;;;;;;1.63;0.60;;;;;;;15.66;44.40;94066.47;4989292;28;20021;-70
2021/11/02 12:44:45;;;;;;;1.00;0.47;;;;;;;14.82;46.68;94068.16;4984263;28;20035;-69
2021/11/02 12:47:14;;;;;;;1.75;0.60;;;;;;;14.86;47.17;94070.91;4973480;28;20056;-69
2021/11/02 12:49:56;;;;;;;0.90;0.40;;;;;;;15.04;46.80;94073.88;4981294;28;20588;-69
2021/11/02 12:52:27;;;;;;;1.13;0.43;;;;;;;14.90;46.95;94073.66;4990883;28;20097;-69
2021/11/02 12:55:14;;;;;;;1.00;0.47;;;;;;;16.06;44.41;94065.03;4992700;28;20026;-69
2021/11/02 12:57:47;;;;;;;1.42;0.52;;;;;;;16.15;44.06;94065.53;4993403;28;20352;-69
2021/11/02 13:00:14;;;;;;;3.63;0.70;;;;;;;15.49;46.09;94065.03;4982715;28;20027;-69
2021/11/02 13:02:42;;;;;;;2.08;0.93;;;;;;;16.13;45.01;94059.78;4984760;28;20030;-69
2021/11/02 13:05:25;;;;;;;1.77;0.52;;;;;;;16.54;42.96;94049.13;4976588;28;20618;-69
2021/11/02 13:08:09;;;;;;;2.30;0.60;;;;;;;15.37;46.06;94056.41;4973778;28;20021;-69
2021/11/02 13:10:36;;;;;;;1.80;0.68;;;;;;;16.34;43.93;94056.56;4971583;28;20027;-68
2021/11/02 13:13:16;;;;;;;0.88;0.55;;;;;;;14.96;46.87;94058.84;4973313;28;20026;-69
2021/11/02 13:15:53;;;;;;;0.52;0.40;;;;;;;16.24;44.23;94052.63;4975292;28;20031;-69
2021/11/02 13:18:32;;;;;;;0.40;0.30;;;;;;;15.54;44.91;94054.00;4982415;28;20053;-69
2021/11/02 13:21:17;;;;;;;1.60;0.47;;;;;;;16.78;43.67;94048.59;4987973;28;20491;-69
2021/11/02 13:23:45;;;;;;;1.92;0.40;;;;;;;17.49;42.63;94039.59;4992703;28;20388;-69
2021/11/02 13:26:16;;;;;;;2.38;0.60;;;;;;;17.21;42.09;94050.91;4992593;28;20041;-69
2021/11/02 13:28:42;;;;;;;0.88;0.52;;;;;;;16.65;42.75;94055.38;4991566;28;20423;-70
2021/11/02 13:31:27;;;;;;;0.60;0.40;;;;;;;15.14;44.84;94051.84;4977811;28;20020;-70
2021/11/02 13:34:07;;;;;;;0.60;0.57;;;;;;;16.33;42.79;94055.81;4980232;28;20105;-70
2021/11/02 13:36:33;;;;;;;1.85;0.40;;;;;;;15.41;44.08;94057.25;4953984;28;20055;-69
2021/11/02 13:39:05;;;;;;;0.60;0.55;;;;;;;16.05;44.14;94060.81;4953732;28;20028;-70
2021/11/02 13:41:39;;;;;;;1.85;0.50;;;;;;;16.49;42.76;94058.28;4953529;28;20039;-69
2021/11/02 13:44:07;;;;;;;2.00;0.40;;;;;;;16.60;42.42;94067.22;4953970;28;20059;-70
2021/11/02 13:46:42;;;;;;;1.10;0.40;;;;;;;17.19;41.39;94048.56;4966434;28;20027;-68
2021/11/02 13:49:09;;;;;;;1.35;0.30;;;;;;;16.23;42.30;94071.78;4981815;28;20113;-70
2021/11/02 13:51:35;;;;;;;2.35;0.50;;;;;;;14.10;46.62;94064.50;4992223;28;20088;-70
2021/11/02 13:54:01;;;;;;;0.95;0.20;;;;;;;13.67;46.46;94068.97;4992144;28;20030;-70
2021/11/02 13:56:33;;;;;;;0.52;0.13;;;;;;;13.73;46.49;94071.00;4992787;28;20671;-70
2021/11/02 13:58:59;;;;;;;0.63;0.30;;;;;;;14.00;46.51;94071.94;4992671;28;20054;-69
2021/11/02 14:01:56;;;;;;;1.63;0.57;;;;;;;15.20;43.97;94046.97;4978636;28;20164;-69
2021/11/02 14:04:27;;;;;;;0.90;0.40;;;;;;;15.34;44.15;94056.00;4980310;28;20031;-69
2021/11/02 14:07:06;;;;;;;0.22;0.22;;;;;;;15.96;42.12;94052.28;4991893;28;20674;-70
2021/11/02 14:09:36;;;;;;;1.27;0.30;;;;;;;14.45;44.28;94064.41;4991656;28;20035;-69
2021/11/02 14:12:19;;;;;;;0.60;0.25;;;;;;;16.10;42.09;94050.53;4991478;28;20034;-69
2021/11/02 14:14:46;;;;;;;0.57;0.22;;;;;;;16.68;40.57;94064.59;4989827;28;20486;-70
2021/11/02 14:17:20;;;;;;;0.55;0.30;;;;;;;14.68;44.08;94061.78;4978512;28;20051;-70
2021/11/02 14:19:47;;;;;;;1.23;0.75;;;;;;;14.80;44.12;94067.00;4983680;28;20026;-70
2021/11/02 14:22:14;;;;;;;2.28;0.30;;;;;;;15.43;43.25;94063.78;4991172;28;20030;-69
2021/11/02 14:24:42;;;;;;;0.57;0.20;;;;;;;14.54;44.42;94068.44;4990342;28;20080;-70
2021/11/02 14:27:20;;;;;;;0.28;0.20;;;;;;;14.03;45.28;94065.91;4992027;28;20109;-69
2021/11/02 14:29:46;;;;;;;1.38;0.40;;;;;;;14.28;45.26;94052.25;4990503;28;20038;-70
2021/11/02 14:32:34;;;;;;;0.50;0.20;;;;;;;13.62;46.28;94063.91;4975594;28;20031;-69
2021/11/02 14:35:00;;;;;;;0.20;0.20;;;;;;;13.49;46.96;94060.56;4983345;28;20030;-69
2021/11/02 14:37:27;;;;;;;0.20;0.20;;;;;;;13.12;47.64;94050.16;4991554;28;20022;-69
2021/11/02 14:40:04;;;;;;;1.85;0.40;;;;;;;13.70;46.85;94057.56;4991337;28;20037;-69
2021/11/02 14:42:50;;;;;;;0.77;0.30;;;;;;;13.47;47.35;94068.91;4991144;28;20023;-70
2021/11/02 14:45:17;;;;;;;0.95;0.30;;;;;;;13.48;47.36;94062.44;4987995;28;20485;-70
2021/11/02 14:47:43;;;;;;;1.95;0.40;;;;;;;14.18;45.61;94056.28;4980115;28;20117;-70
2021/11/02 14:50:37;;;;;;;1.58;0.30;;;;;;;13.78;46.41;94069.97;4977318;28;20456;-71
2021/11/02 14:53:29;;;;;;;0.95;0.40;;;;;;;13.86;46.61;94066.31;4991051;28;20037;-70
2021/11/02 14:56:01;;;;;;;0.80;0.52;;;;;;;13.75;47.10;94055.38;4991013;28;20026;-70
2021/11/02 14:58:38;;;;;;;3.95;0.60;;;;;;;14.02;46.64;94059.03;4989424;28;20030;-70
2021/11/02 15:01:24;;;;;;;0.50;0.50;;;;;;;13.85;47.13;94070.09;4982032;28;20510;-70
2021/11/02 15:03:54;;;;;;;4.53;0.68;;;;;;;13.81;47.58;94060.47;4977345;28;20112;-70
2021/11/02 15:06:28;;;;;;;2.25;0.50;;;;;;;13.77;47.52;94052.38;4982877;28;20395;-70
2021/11/02 15:08:54;;;;;;;1.63;0.60;;;;;;;13.70;47.95;94066.34;4990986;28;20030;-70
2021/11/02 15:11:20;;;;;;;1.50;0.40;;;;;;;13.32;48.79;94052.94;4990428;28;20026;-70
2021/11/02 15:13:48;;;;;;;0.77;0.30;;;;;;;12.92;49.67;94073.31;4990507;28;20109;-70
2021/11/02 15:16:14;;;;;;;6.95;0.55;;;;;;;13.41;48.55;94081.00;4982513;28;20051;-70
2021/11/02 15:18:45;;;;;;;0.90;0.50;;;;;;;13.57;47.76;94072.97;4979521;28;20476;-71
2021/11/02 15:21:21;;;;;;;1.15;0.40;;;;;;;13.10;49.12;94072.97;4981940;28;20030;-70
2021/11/02 15:23:49;;;;;;;1.90;0.55;;;;;;;12.91;49.59;94071.78;4990059;28;20049;-70
2021/11/02 15:26:15;;;;;;;2.20;0.63;;;;;;;13.59;48.30;94073.38;4990616;28;20026;-71
2021/11/02 15:28:46;;;;;;;3.47;0.90;;;;;;;13.45;48.47;94081.06;4990632;28;20026;-70
2021/11/02 15:31:20;;;;;;;2.00;0.43;;;;;;;13.71;48.03;94083.94;4983228;28;20019;-70
2021/11/02 15:33:46;;;;;;;4.40;0.90;;;;;;;14.02;46.92;94084.97;4978992;28;20484;-71
2021/11/02 15:36:18;;;;;;;1.20;0.80;;;;;;;13.40;48.76;94098.13;4981899;28;20049;-70
2021/11/02 15:38:55;;;;;;;2.47;0.93;;;;;;;14.04;47.00;94088.84;4990284;28;20037;-70
2021/11/02 15:41:22;;;;;;;2.78;0.73;;;;;;;14.05;46.84;94098.41;4989717;28;20027;-70
2021/11/02 15:43:55;;;;;;;1.23;1.13;;;;;;;13.98;46.81;94095.59;4990159;28;20028;-70
2021/11/02 15:46:33;;;;;;;1.33;1.10;;;;;;;13.82;47.77;94102.91;4983401;28;20035;-70
2021/11/02 15:49:03;;;;;;;4.93;1.02;;;;;;;14.19;46.95;94102.50;4978831;28;20097;-71
2021/11/02 15:51:32;;;;;;;1.58;1.08;;;;;;;14.19;47.13;94111.31;4996467;28;20475;-70
2021/11/02 15:53:59;;;;;;;4.75;1.15;;;;;;;14.52;46.63;94108.16;4989883;28;20035;-70
2021/11/02 15:56:26;;;;;;;3.00;1.23;;;;;;;14.69;46.24;94111.50;4990003;28;20026;-69
2021/11/02 15:58:57;;;;;;;4.25;0.82;;;;;;;14.20;47.42;94118.19;4990416;28;20022;-69
2021/11/02 16:01:40;;;;;;;0.98;0.73;;;;;;;14.58;46.65;94127.38;4978728;28;20028;-73
2021/11/02 16:04:19;;;;;;;2.50;0.90;;;;;;;14.72;46.50;94118.84;4979139;28;20038;-69
2021/11/02 16:07:11;;;;;;;1.75;0.60;;;;;;;14.40;46.78;94124.34;4984405;28;20042;-70
2021/11/02 16:09:52;;;;;;;3.92;0.70;;;;;;;14.66;46.22;94122.94;4990173;28;20030;-69
2021/11/02 16:12:20;;;;;;;1.10;0.80;;;;;;;14.73;45.93;94123.81;4989393;28;20484;-69
2021/11/02 16:14:50;;;;;;;1.55;0.60;;;;;;;14.76;45.32;94120.47;4989613;28;20489;-69
2021/11/02 16:17:15;;;;;;;0.88;0.63;;;;;;;14.87;45.83;94131.34;4988909;28;20051;-69
2021/11/02 16:19:41;;;;;;;2.92;0.90;;;;;;;14.82;45.46;94126.28;4994371;28;20031;-71
2021/11/02 16:22:07;;;;;;;1.65;0.90;;;;;;;14.77;45.93;94126.59;4986295;28;20023;-69
2021/11/02 16:24:33;;;;;;;0.68;0.60;;;;;;;14.66;46.12;94130.97;4989536;28;20026;-71
2021/11/02 16:27:13;;;;;;;1.08;0.80;;;;;;;14.49;46.65;94130.28;4990926;28;20034;-69
2021/11/02 16:29:38;;;;;;;1.20;0.82;;;;;;;14.42;46.32;94138.13;4992254;28;20546;-69
2021/11/02 16:32:25;;;;;;;4.07;0.70;;;;;;;14.29;46.72;94140.16;4980513;28;20062;-71
2021/11/02 16:34:52;;;;;;;1.73;1.23;;;;;;;14.25;46.72;94142.00;4976402;28;20117;-71
2021/11/02 16:37:38;;;;;;;1.10;0.90;;;;;;;14.36;46.95;94152.91;4992043;28;20030;-72
2021/11/02 16:40:27;;;;;;;2.75;1.40;;;;;;;14.38;47.40;94147.19;4993117;28;20034;-69
2021/11/02 16:42:55;;;;;;;5.57;1.35;;;;;;;14.43;47.08;94152.28;4993466;28;20026;-70
2021/11/02 16:45:22;;;;;;;3.00;1.42;;;;;;;14.49;47.37;94146.34;4992573;28;20034;-69
2021/11/02 16:47:54;;;;;;;3.65;1.48;;;;;;;14.48;47.27;94139.41;4978367;28;20535;-69
2021/11/02 16:50:26;;;;;;;1.67;1.30;;;;;;;14.51;47.01;94144.06;4980708;28;20708;-72
2021/11/02 16:52:52;;;;;;;1.95;1.50;;;;;;;14.49;47.12;94149.00;4993021;28;20110;-71
2021/11/02 16:55:18;;;;;;;1.92;0.98;;;;;;;14.43;46.90;94144.25;4992949;28;20121;-70
2021/11/02 16:57:45;;;;;;;2.88;1.10;;;;;;;14.47;47.02;94148.56;4993276;28;20029;-70
2021/11/02 17:00:15;;;;;;;1.35;0.98;;;;;;;14.32;46.80;94152.06;4992665;28;20511;-69
2021/11/02 17:02:45;;;;;;;2.63;0.80;;;;;;;14.37;46.89;94157.13;4993319;28;20271;-72
2021/11/02 17:05:35;;;;;;;1.60;1.20;;;;;;;14.44;46.47;94164.53;4976209;28;20058;-70